sensor_id;sensor_type;location;lat;lon;timestamp;pressure;altitude;pressure_sealevel;temperature;humidity
21555;BME280;10938;44.794;-0.676;2022-08-14T00:00:27;100548.94;;;29.73;nan
21555;BME280;10938;44.794;-0.676;2022-08-14T00:02:52;100541.31;;;29.54;nan
21555;BME280;10938;44.794;-0.676;2022-08-14T00:05:20;100534.09;;;29.16;nan
21555;BME280;10938;44.794;-0.676;2022-08-14T00:07:46;100545.41;;;29.73;nan
21555;BME280;10938;44.794;-0.676;2022-08-14T00:10:15;100556.88;;;29.89;nan
21555;BME280;10938;44.794;-0.676;2022-08-14T00:12:45;100567.31;;;29.67;nan
21555;BME280;10938;44.794;-0.676;2022-08-14T00:15:18;100567.75;;;29.60;nan
21555;BME280;10938;44.794;-0.676;2022-08-14T00:17:44;100569.97;;;30.06;nan
21555;BME280;10938;44.794;-0.676;2022-08-14T00:20:10;100565.41;;;30.70;nan
21555;BME280;10938;44.794;-0.676;2022-08-14T00:22:36;100533.25;;;29.80;nan
21555;BME280;10938;44.794;-0.676;2022-08-14T00:25:03;100525.88;;;31.65;nan
21555;BME280;10938;44.794;-0.676;2022-08-14T00:27:28;100531.44;;;30.43;nan
21555;BME280;10938;44.794;-0.676;2022-08-14T00:29:54;100546.72;;;30.30;nan
21555;BME280;10938;44.794;-0.676;2022-08-14T00:32:19;100561.75;;;32.00;nan
21555;BME280;10938;44.794;-0.676;2022-08-14T00:34:45;100569.91;;;30.82;nan
21555;BME280;10938;44.794;-0.676;2022-08-14T00:37:10;100523.31;;;31.05;nan
21555;BME280;10938;44.794;-0.676;2022-08-14T00:39:37;100494.41;;;29.46;nan
21555;BME280;10938;44.794;-0.676;2022-08-14T00:42:03;100483.22;;;28.59;nan
21555;BME280;10938;44.794;-0.676;2022-08-14T00:44:28;100497.22;;;29.70;nan
21555;BME280;10938;44.794;-0.676;2022-08-14T00:46:54;100525.31;;;29.26;nan
21555;BME280;10938;44.794;-0.676;2022-08-14T00:49:19;100550.84;;;29.85;nan
21555;BME280;10938;44.794;-0.676;2022-08-14T00:51:45;100546.22;;;29.48;nan
21555;BME280;10938;44.794;-0.676;2022-08-14T00:54:11;100527.72;;;29.43;nan
21555;BME280;10938;44.794;-0.676;2022-08-14T00:56:37;100509.16;;;29.53;nan
21555;BME280;10938;44.794;-0.676;2022-08-14T00:59:03;100522.56;;;29.40;nan
21555;BME280;10938;44.794;-0.676;2022-08-14T01:04:54;100494.44;;;30.94;nan
21555;BME280;10938;44.794;-0.676;2022-08-14T01:07:25;100483.91;;;30.19;nan
21555;BME280;10938;44.794;-0.676;2022-08-14T01:09:58;100497.66;;;30.76;nan
21555;BME280;10938;44.794;-0.676;2022-08-14T01:12:26;100513.25;;;31.54;nan
21555;BME280;10938;44.794;-0.676;2022-08-14T01:14:52;100543.47;;;31.82;nan
21555;BME280;10938;44.794;-0.676;2022-08-14T01:17:20;100555.53;;;32.67;nan
21555;BME280;10938;44.794;-0.676;2022-08-14T01:19:46;100540.59;;;32.62;nan
21555;BME280;10938;44.794;-0.676;2022-08-14T01:22:30;100487.94;;;28.70;nan
21555;BME280;10938;44.794;-0.676;2022-08-14T01:24:57;100482.47;;;28.98;nan
21555;BME280;10938;44.794;-0.676;2022-08-14T01:27:24;100482.38;;;31.00;nan
21555;BME280;10938;44.794;-0.676;2022-08-14T01:29:52;100480.88;;;28.40;nan
21555;BME280;10938;44.794;-0.676;2022-08-14T01:32:18;100471.84;;;27.12;nan
21555;BME280;10938;44.794;-0.676;2022-08-14T01:34:50;100478.06;;;30.74;nan
21555;BME280;10938;44.794;-0.676;2022-08-14T01:37:20;100478.72;;;29.00;nan
21555;BME280;10938;44.794;-0.676;2022-08-14T01:39:51;100476.69;;;27.94;nan
21555;BME280;10938;44.794;-0.676;2022-08-14T01:42:19;100468.84;;;28.05;nan
21555;BME280;10938;44.794;-0.676;2022-08-14T01:44:46;100445.03;;;28.15;nan
21555;BME280;10938;44.794;-0.676;2022-08-14T01:47:15;100449.31;;;28.31;nan
21555;BME280;10938;44.794;-0.676;2022-08-14T01:49:41;100450.19;;;28.58;nan
21555;BME280;10938;44.794;-0.676;2022-08-14T01:52:07;100488.47;;;28.89;nan
21555;BME280;10938;44.794;-0.676;2022-08-14T01:54:33;100492.47;;;29.35;nan
21555;BME280;10938;44.794;-0.676;2022-08-14T01:56:59;100484.56;;;29.20;nan
21555;BME280;10938;44.794;-0.676;2022-08-14T01:59:28;100477.25;;;29.74;nan
21555;BME280;10938;44.794;-0.676;2022-08-14T02:01:58;100478.44;;;31.51;nan
21555;BME280;10938;44.794;-0.676;2022-08-14T02:04:31;100488.38;;;29.42;nan
21555;BME280;10938;44.794;-0.676;2022-08-14T02:06:57;100457.47;;;31.20;nan
21555;BME280;10938;44.794;-0.676;2022-08-14T02:09:23;100442.28;;;29.36;nan
21555;BME280;10938;44.794;-0.676;2022-08-14T02:11:49;100435.75;;;30.76;nan
21555;BME280;10938;44.794;-0.676;2022-08-14T02:14:15;100443.59;;;31.48;nan
21555;BME280;10938;44.794;-0.676;2022-08-14T02:16:44;100457.50;;;29.87;nan
21555;BME280;10938;44.794;-0.676;2022-08-14T02:19:14;100479.03;;;30.73;nan
21555;BME280;10938;44.794;-0.676;2022-08-14T02:21:45;100482.19;;;29.92;nan
21555;BME280;10938;44.794;-0.676;2022-08-14T02:24:12;100494.41;;;31.07;nan
21555;BME280;10938;44.794;-0.676;2022-08-14T02:26:40;100504.63;;;30.54;nan
21555;BME280;10938;44.794;-0.676;2022-08-14T02:29:11;100511.03;;;32.05;nan
21555;BME280;10938;44.794;-0.676;2022-08-14T02:31:39;100500.44;;;32.47;nan
21555;BME280;10938;44.794;-0.676;2022-08-14T02:36:44;100489.59;;;30.76;nan
21555;BME280;10938;44.794;-0.676;2022-08-14T02:39:11;100491.94;;;31.28;nan
21555;BME280;10938;44.794;-0.676;2022-08-14T02:41:37;100492.22;;;32.71;nan
21555;BME280;10938;44.794;-0.676;2022-08-14T02:44:05;100499.22;;;32.40;nan
21555;BME280;10938;44.794;-0.676;2022-08-14T02:46:31;100505.41;;;33.28;nan
21555;BME280;10938;44.794;-0.676;2022-08-14T02:48:57;100493.31;;;30.37;nan
21555;BME280;10938;44.794;-0.676;2022-08-14T02:51:23;100480.56;;;30.64;nan
21555;BME280;10938;44.794;-0.676;2022-08-14T02:53:49;100466.72;;;32.52;nan
21555;BME280;10938;44.794;-0.676;2022-08-14T02:56:16;100472.41;;;32.05;nan
21555;BME280;10938;44.794;-0.676;2022-08-14T02:58:45;100492.00;;;33.79;nan
21555;BME280;10938;44.794;-0.676;2022-08-14T03:01:12;100499.72;;;34.44;nan
21555;BME280;10938;44.794;-0.676;2022-08-14T03:03:38;100500.09;;;34.70;nan
21555;BME280;10938;44.794;-0.676;2022-08-14T03:06:05;100495.09;;;34.65;nan
21555;BME280;10938;44.794;-0.676;2022-08-14T03:08:32;100473.91;;;33.38;nan
21555;BME280;10938;44.794;-0.676;2022-08-14T03:11:03;100469.69;;;32.92;nan
21555;BME280;10938;44.794;-0.676;2022-08-14T03:13:31;100472.59;;;32.57;nan
21555;BME280;10938;44.794;-0.676;2022-08-14T03:16:00;100482.03;;;31.39;nan
21555;BME280;10938;44.794;-0.676;2022-08-14T03:18:26;100471.72;;;31.33;nan
21555;BME280;10938;44.794;-0.676;2022-08-14T03:20:52;100475.13;;;30.77;nan
21555;BME280;10938;44.794;-0.676;2022-08-14T03:23:18;100478.97;;;31.79;nan
21555;BME280;10938;44.794;-0.676;2022-08-14T03:25:44;100482.25;;;33.14;nan
21555;BME280;10938;44.794;-0.676;2022-08-14T03:28:11;100479.44;;;31.61;nan
21555;BME280;10938;44.794;-0.676;2022-08-14T03:30:37;100483.69;;;30.94;nan
21555;BME280;10938;44.794;-0.676;2022-08-14T03:33:04;100491.00;;;31.05;nan
21555;BME280;10938;44.794;-0.676;2022-08-14T03:35:30;100484.28;;;32.25;nan
21555;BME280;10938;44.794;-0.676;2022-08-14T03:38:16;100467.06;;;31.70;nan
21555;BME280;10938;44.794;-0.676;2022-08-14T03:40:42;100472.84;;;33.50;nan
21555;BME280;10938;44.794;-0.676;2022-08-14T03:43:09;100481.88;;;35.58;nan
21555;BME280;10938;44.794;-0.676;2022-08-14T03:45:36;100479.16;;;30.95;nan
21555;BME280;10938;44.794;-0.676;2022-08-14T03:48:14;100470.75;;;30.27;nan
21555;BME280;10938;44.794;-0.676;2022-08-14T03:50:44;100469.75;;;30.53;nan
21555;BME280;10938;44.794;-0.676;2022-08-14T03:53:12;100474.75;;;30.70;nan
21555;BME280;10938;44.794;-0.676;2022-08-14T03:55:38;100476.97;;;31.24;nan
21555;BME280;10938;44.794;-0.676;2022-08-14T03:58:05;100486.22;;;30.85;nan
21555;BME280;10938;44.794;-0.676;2022-08-14T04:00:32;100473.84;;;31.06;nan
21555;BME280;10938;44.794;-0.676;2022-08-14T04:02:57;100473.03;;;31.17;nan
21555;BME280;10938;44.794;-0.676;2022-08-14T04:05:23;100478.84;;;31.34;nan
21555;BME280;10938;44.794;-0.676;2022-08-14T04:07:49;100473.38;;;31.12;nan
21555;BME280;10938;44.794;-0.676;2022-08-14T04:10:15;100480.00;;;32.11;nan
21555;BME280;10938;44.794;-0.676;2022-08-14T04:12:41;100467.88;;;32.82;nan
21555;BME280;10938;44.794;-0.676;2022-08-14T04:15:07;100473.38;;;33.23;nan
21555;BME280;10938;44.794;-0.676;2022-08-14T04:17:32;100477.31;;;33.60;nan
21555;BME280;10938;44.794;-0.676;2022-08-14T04:19:59;100481.72;;;33.73;nan
21555;BME280;10938;44.794;-0.676;2022-08-14T04:22:29;100489.19;;;33.90;nan
21555;BME280;10938;44.794;-0.676;2022-08-14T04:24:56;100488.28;;;34.40;nan
21555;BME280;10938;44.794;-0.676;2022-08-14T04:27:21;100485.03;;;32.92;nan
21555;BME280;10938;44.794;-0.676;2022-08-14T04:29:47;100498.31;;;34.49;nan
21555;BME280;10938;44.794;-0.676;2022-08-14T04:32:13;100499.34;;;32.72;nan
21555;BME280;10938;44.794;-0.676;2022-08-14T04:34:39;100500.09;;;32.40;nan
21555;BME280;10938;44.794;-0.676;2022-08-14T04:37:07;100500.19;;;33.04;nan
21555;BME280;10938;44.794;-0.676;2022-08-14T04:40:05;100506.72;;;30.26;nan
21555;BME280;10938;44.794;-0.676;2022-08-14T04:42:50;100499.16;;;30.31;nan
21555;BME280;10938;44.794;-0.676;2022-08-14T04:45:34;100496.78;;;29.76;nan
21555;BME280;10938;44.794;-0.676;2022-08-14T04:48:11;100497.75;;;31.45;nan
21555;BME280;10938;44.794;-0.676;2022-08-14T04:50:42;100505.59;;;31.13;nan
21555;BME280;10938;44.794;-0.676;2022-08-14T04:53:08;100508.22;;;32.29;nan
21555;BME280;10938;44.794;-0.676;2022-08-14T04:55:38;100506.69;;;32.03;nan
21555;BME280;10938;44.794;-0.676;2022-08-14T04:58:03;100507.66;;;31.91;nan
21555;BME280;10938;44.794;-0.676;2022-08-14T05:00:30;100511.63;;;32.20;nan
21555;BME280;10938;44.794;-0.676;2022-08-14T05:02:56;100508.06;;;32.42;nan
21555;BME280;10938;44.794;-0.676;2022-08-14T05:05:23;100514.69;;;33.03;nan
21555;BME280;10938;44.794;-0.676;2022-08-14T05:07:50;100515.88;;;33.74;nan
21555;BME280;10938;44.794;-0.676;2022-08-14T05:10:16;100523.38;;;34.42;nan
21555;BME280;10938;44.794;-0.676;2022-08-14T05:12:50;100513.56;;;35.67;nan
21555;BME280;10938;44.794;-0.676;2022-08-14T05:15:17;100521.16;;;32.02;nan
21555;BME280;10938;44.794;-0.676;2022-08-14T05:17:45;100523.75;;;34.68;nan
21555;BME280;10938;44.794;-0.676;2022-08-14T05:20:11;100522.53;;;34.91;nan
21555;BME280;10938;44.794;-0.676;2022-08-14T05:22:37;100528.66;;;34.13;nan
21555;BME280;10938;44.794;-0.676;2022-08-14T05:25:03;100535.38;;;34.89;nan
21555;BME280;10938;44.794;-0.676;2022-08-14T05:27:28;100536.31;;;34.69;nan
21555;BME280;10938;44.794;-0.676;2022-08-14T05:29:54;100526.88;;;32.97;nan
21555;BME280;10938;44.794;-0.676;2022-08-14T05:32:20;100530.91;;;30.38;nan
21555;BME280;10938;44.794;-0.676;2022-08-14T05:34:46;100528.53;;;32.78;nan
21555;BME280;10938;44.794;-0.676;2022-08-14T05:37:11;100532.59;;;34.70;nan
21555;BME280;10938;44.794;-0.676;2022-08-14T05:39:38;100522.13;;;34.55;nan
21555;BME280;10938;44.794;-0.676;2022-08-14T05:42:05;100526.69;;;33.94;nan
21555;BME280;10938;44.794;-0.676;2022-08-14T05:44:30;100525.28;;;35.68;nan
21555;BME280;10938;44.794;-0.676;2022-08-14T05:46:56;100541.34;;;36.99;nan
21555;BME280;10938;44.794;-0.676;2022-08-14T05:49:22;100529.66;;;32.42;nan
21555;BME280;10938;44.794;-0.676;2022-08-14T05:51:47;100531.75;;;30.51;nan
21555;BME280;10938;44.794;-0.676;2022-08-14T05:54:13;100539.50;;;30.31;nan
21555;BME280;10938;44.794;-0.676;2022-08-14T05:56:38;100541.75;;;30.62;nan
21555;BME280;10938;44.794;-0.676;2022-08-14T05:59:03;100540.84;;;32.15;nan
21555;BME280;10938;44.794;-0.676;2022-08-14T06:01:29;100548.84;;;34.09;nan
21555;BME280;10938;44.794;-0.676;2022-08-14T06:03:55;100543.53;;;32.15;nan
21555;BME280;10938;44.794;-0.676;2022-08-14T06:06:20;100535.38;;;30.63;nan
21555;BME280;10938;44.794;-0.676;2022-08-14T06:08:49;100528.78;;;31.27;nan
21555;BME280;10938;44.794;-0.676;2022-08-14T06:11:15;100531.75;;;30.88;nan
21555;BME280;10938;44.794;-0.676;2022-08-14T06:13:42;100526.84;;;30.69;nan
21555;BME280;10938;44.794;-0.676;2022-08-14T06:16:07;100533.44;;;31.01;nan
21555;BME280;10938;44.794;-0.676;2022-08-14T06:18:33;100530.28;;;32.99;nan
21555;BME280;10938;44.794;-0.676;2022-08-14T06:21:01;100530.31;;;33.10;nan
21555;BME280;10938;44.794;-0.676;2022-08-14T06:23:26;100527.22;;;32.28;nan
21555;BME280;10938;44.794;-0.676;2022-08-14T06:25:51;100537.09;;;35.09;nan
21555;BME280;10938;44.794;-0.676;2022-08-14T06:28:18;100533.84;;;32.35;nan
21555;BME280;10938;44.794;-0.676;2022-08-14T06:30:44;100531.38;;;32.21;nan
21555;BME280;10938;44.794;-0.676;2022-08-14T06:33:10;100537.41;;;32.57;nan
21555;BME280;10938;44.794;-0.676;2022-08-14T06:35:36;100534.69;;;32.24;nan
21555;BME280;10938;44.794;-0.676;2022-08-14T06:38:01;100536.91;;;32.19;nan
21555;BME280;10938;44.794;-0.676;2022-08-14T06:40:30;100550.88;;;32.13;nan
21555;BME280;10938;44.794;-0.676;2022-08-14T06:43:00;100541.78;;;34.18;nan
21555;BME280;10938;44.794;-0.676;2022-08-14T06:45:27;100550.50;;;31.37;nan
21555;BME280;10938;44.794;-0.676;2022-08-14T06:47:53;100551.13;;;31.40;nan
21555;BME280;10938;44.794;-0.676;2022-08-14T06:50:22;100556.59;;;31.28;nan
21555;BME280;10938;44.794;-0.676;2022-08-14T06:52:49;100550.16;;;31.65;nan
21555;BME280;10938;44.794;-0.676;2022-08-14T06:55:16;100553.03;;;31.86;nan
21555;BME280;10938;44.794;-0.676;2022-08-14T06:57:44;100554.31;;;32.37;nan
21555;BME280;10938;44.794;-0.676;2022-08-14T07:00:13;100546.22;;;32.26;nan
21555;BME280;10938;44.794;-0.676;2022-08-14T07:02:39;100551.25;;;33.82;nan
21555;BME280;10938;44.794;-0.676;2022-08-14T07:05:23;100556.84;;;33.37;nan
21555;BME280;10938;44.794;-0.676;2022-08-14T07:08:27;100550.91;;;33.96;nan
21555;BME280;10938;44.794;-0.676;2022-08-14T07:10:59;100548.06;;;34.18;nan
21555;BME280;10938;44.794;-0.676;2022-08-14T07:13:25;100552.28;;;33.90;nan
21555;BME280;10938;44.794;-0.676;2022-08-14T07:15:54;100545.09;;;34.21;nan
21555;BME280;10938;44.794;-0.676;2022-08-14T07:18:26;100547.88;;;34.40;nan
21555;BME280;10938;44.794;-0.676;2022-08-14T07:20:53;100538.09;;;35.08;nan
21555;BME280;10938;44.794;-0.676;2022-08-14T07:23:20;100542.94;;;35.04;nan
21555;BME280;10938;44.794;-0.676;2022-08-14T07:25:49;100552.13;;;35.71;nan
21555;BME280;10938;44.794;-0.676;2022-08-14T07:28:28;100551.69;;;35.18;nan
21555;BME280;10938;44.794;-0.676;2022-08-14T07:30:56;100553.44;;;33.35;nan
21555;BME280;10938;44.794;-0.676;2022-08-14T07:33:28;100553.63;;;34.56;nan
21555;BME280;10938;44.794;-0.676;2022-08-14T07:35:54;100553.03;;;33.72;nan
21555;BME280;10938;44.794;-0.676;2022-08-14T07:38:21;100558.50;;;33.49;nan
21555;BME280;10938;44.794;-0.676;2022-08-14T07:40:50;100553.06;;;35.02;nan
21555;BME280;10938;44.794;-0.676;2022-08-14T07:43:16;100558.97;;;35.27;nan
21555;BME280;10938;44.794;-0.676;2022-08-14T07:45:42;100562.63;;;36.86;nan
21555;BME280;10938;44.794;-0.676;2022-08-14T07:48:08;100559.50;;;33.17;nan
21555;BME280;10938;44.794;-0.676;2022-08-14T07:50:34;100570.06;;;32.66;nan
21555;BME280;10938;44.794;-0.676;2022-08-14T07:53:00;100571.19;;;34.22;nan
21555;BME280;10938;44.794;-0.676;2022-08-14T07:55:27;100568.31;;;32.31;nan
21555;BME280;10938;44.794;-0.676;2022-08-14T07:57:53;100565.13;;;32.37;nan
21555;BME280;10938;44.794;-0.676;2022-08-14T08:00:21;100564.78;;;33.29;nan
21555;BME280;10938;44.794;-0.676;2022-08-14T08:02:49;100550.91;;;32.57;nan
21555;BME280;10938;44.794;-0.676;2022-08-14T08:05:16;100553.72;;;32.67;nan
21555;BME280;10938;44.794;-0.676;2022-08-14T08:07:44;100564.13;;;33.57;nan
21555;BME280;10938;44.794;-0.676;2022-08-14T08:10:13;100560.88;;;32.00;nan
21555;BME280;10938;44.794;-0.676;2022-08-14T08:13:07;100550.06;;;31.78;nan
21555;BME280;10938;44.794;-0.676;2022-08-14T08:15:36;100555.75;;;34.53;nan
21555;BME280;10938;44.794;-0.676;2022-08-14T08:18:04;100560.34;;;36.07;nan
21555;BME280;10938;44.794;-0.676;2022-08-14T08:20:35;100546.75;;;32.96;nan
21555;BME280;10938;44.794;-0.676;2022-08-14T08:23:03;100557.28;;;36.67;nan
21555;BME280;10938;44.794;-0.676;2022-08-14T08:25:33;100558.69;;;37.86;nan
21555;BME280;10938;44.794;-0.676;2022-08-14T08:28:01;100557.41;;;34.65;nan
21555;BME280;10938;44.794;-0.676;2022-08-14T08:30:31;100557.72;;;34.41;nan
21555;BME280;10938;44.794;-0.676;2022-08-14T08:32:59;100569.41;;;34.72;nan
21555;BME280;10938;44.794;-0.676;2022-08-14T08:35:28;100565.00;;;34.50;nan
21555;BME280;10938;44.794;-0.676;2022-08-14T08:38:00;100557.53;;;35.80;nan
21555;BME280;10938;44.794;-0.676;2022-08-14T08:40:33;100568.19;;;37.82;nan
21555;BME280;10938;44.794;-0.676;2022-08-14T08:43:06;100573.41;;;39.93;nan
21555;BME280;10938;44.794;-0.676;2022-08-14T08:45:34;100578.84;;;40.09;nan
21555;BME280;10938;44.794;-0.676;2022-08-14T08:48:01;100579.44;;;40.91;nan
21555;BME280;10938;44.794;-0.676;2022-08-14T08:50:32;100571.31;;;40.36;nan
21555;BME280;10938;44.794;-0.676;2022-08-14T08:53:01;100567.69;;;43.42;nan
21555;BME280;10938;44.794;-0.676;2022-08-14T08:55:38;100566.59;;;39.81;nan
21555;BME280;10938;44.794;-0.676;2022-08-14T08:58:09;100566.25;;;37.75;nan
21555;BME280;10938;44.794;-0.676;2022-08-14T09:00:36;100571.00;;;37.37;nan
21555;BME280;10938;44.794;-0.676;2022-08-14T09:03:11;100573.50;;;36.49;nan
21555;BME280;10938;44.794;-0.676;2022-08-14T09:08:19;100567.38;;;35.91;nan
21555;BME280;10938;44.794;-0.676;2022-08-14T09:10:45;100572.63;;;36.02;nan
21555;BME280;10938;44.794;-0.676;2022-08-14T09:13:13;100578.78;;;34.38;nan
21555;BME280;10938;44.794;-0.676;2022-08-14T09:15:42;100582.53;;;34.16;nan
21555;BME280;10938;44.794;-0.676;2022-08-14T09:18:10;100579.78;;;34.67;nan
21555;BME280;10938;44.794;-0.676;2022-08-14T09:20:42;100585.72;;;34.91;nan
21555;BME280;10938;44.794;-0.676;2022-08-14T09:23:09;100576.66;;;34.41;nan
21555;BME280;10938;44.794;-0.676;2022-08-14T09:25:36;100579.94;;;35.25;nan
21555;BME280;10938;44.794;-0.676;2022-08-14T09:28:03;100584.56;;;34.84;nan
21555;BME280;10938;44.794;-0.676;2022-08-14T09:30:34;100583.94;;;34.41;nan
21555;BME280;10938;44.794;-0.676;2022-08-14T09:38:21;100582.13;;;36.99;nan
21555;BME280;10938;44.794;-0.676;2022-08-14T09:40:59;100580.28;;;34.82;nan
21555;BME280;10938;44.794;-0.676;2022-08-14T09:43:32;100585.41;;;35.73;nan
21555;BME280;10938;44.794;-0.676;2022-08-14T09:46:05;100584.69;;;35.71;nan
21555;BME280;10938;44.794;-0.676;2022-08-14T09:48:32;100588.78;;;36.87;nan
21555;BME280;10938;44.794;-0.676;2022-08-14T09:50:58;100587.16;;;36.76;nan
21555;BME280;10938;44.794;-0.676;2022-08-14T09:53:43;100583.63;;;36.56;nan
21555;BME280;10938;44.794;-0.676;2022-08-14T09:56:12;100582.66;;;36.85;nan
21555;BME280;10938;44.794;-0.676;2022-08-14T09:58:45;100581.22;;;37.53;nan
21555;BME280;10938;44.794;-0.676;2022-08-14T10:01:13;100580.09;;;37.28;nan
21555;BME280;10938;44.794;-0.676;2022-08-14T10:03:49;100579.78;;;37.67;nan
21555;BME280;10938;44.794;-0.676;2022-08-14T10:06:21;100584.75;;;37.89;nan
21555;BME280;10938;44.794;-0.676;2022-08-14T10:09:02;100580.09;;;37.99;nan
21555;BME280;10938;44.794;-0.676;2022-08-14T10:11:32;100580.19;;;38.41;nan
21555;BME280;10938;44.794;-0.676;2022-08-14T10:16:41;100588.09;;;40.17;nan
21555;BME280;10938;44.794;-0.676;2022-08-14T10:19:09;100591.81;;;40.32;nan
21555;BME280;10938;44.794;-0.676;2022-08-14T10:21:37;100585.22;;;40.73;nan
21555;BME280;10938;44.794;-0.676;2022-08-14T10:24:03;100594.31;;;40.57;nan
21555;BME280;10938;44.794;-0.676;2022-08-14T10:26:34;100602.81;;;42.23;nan
21555;BME280;10938;44.794;-0.676;2022-08-14T10:29:10;100592.84;;;42.59;nan
21555;BME280;10938;44.794;-0.676;2022-08-14T10:31:41;100601.41;;;40.83;nan
21555;BME280;10938;44.794;-0.676;2022-08-14T10:34:08;100598.59;;;41.98;nan
21555;BME280;10938;44.794;-0.676;2022-08-14T10:36:39;100597.47;;;42.07;nan
21555;BME280;10938;44.794;-0.676;2022-08-14T10:41:43;100585.13;;;40.89;nan
21555;BME280;10938;44.794;-0.676;2022-08-14T10:44:17;100593.44;;;41.04;nan
21555;BME280;10938;44.794;-0.676;2022-08-14T10:46:45;100587.09;;;39.85;nan
21555;BME280;10938;44.794;-0.676;2022-08-14T10:49:20;100581.63;;;39.69;nan
21555;BME280;10938;44.794;-0.676;2022-08-14T10:52:08;100586.72;;;39.80;nan
21555;BME280;10938;44.794;-0.676;2022-08-14T10:57:20;100589.59;;;40.27;nan
21555;BME280;10938;44.794;-0.676;2022-08-14T10:59:54;100590.63;;;40.26;nan
21555;BME280;10938;44.794;-0.676;2022-08-14T11:02:26;100601.41;;;40.11;nan
21555;BME280;10938;44.794;-0.676;2022-08-14T11:07:24;100590.91;;;39.18;nan
21555;BME280;10938;44.794;-0.676;2022-08-14T11:10:00;100598.47;;;38.31;nan
21555;BME280;10938;44.794;-0.676;2022-08-14T11:12:38;100586.91;;;37.59;nan
21555;BME280;10938;44.794;-0.676;2022-08-14T11:15:04;100588.56;;;37.25;nan
21555;BME280;10938;44.794;-0.676;2022-08-14T11:17:33;100591.56;;;38.36;nan
21555;BME280;10938;44.794;-0.676;2022-08-14T11:20:02;100589.78;;;38.87;nan
21555;BME280;10938;44.794;-0.676;2022-08-14T11:22:31;100581.38;;;37.51;nan
21555;BME280;10938;44.794;-0.676;2022-08-14T11:25:04;100587.31;;;39.18;nan
21555;BME280;10938;44.794;-0.676;2022-08-14T11:27:32;100591.81;;;40.07;nan
21555;BME280;10938;44.794;-0.676;2022-08-14T11:30:06;100587.25;;;39.76;nan
21555;BME280;10938;44.794;-0.676;2022-08-14T11:32:32;100580.19;;;37.36;nan
21555;BME280;10938;44.794;-0.676;2022-08-14T11:34:59;100575.69;;;38.32;nan
21555;BME280;10938;44.794;-0.676;2022-08-14T11:37:27;100582.50;;;38.61;nan
21555;BME280;10938;44.794;-0.676;2022-08-14T11:39:54;100581.41;;;39.38;nan
21555;BME280;10938;44.794;-0.676;2022-08-14T11:42:24;100577.50;;;39.49;nan
21555;BME280;10938;44.794;-0.676;2022-08-14T11:44:52;100581.94;;;39.42;nan
21555;BME280;10938;44.794;-0.676;2022-08-14T11:47:18;100583.72;;;39.17;nan
21555;BME280;10938;44.794;-0.676;2022-08-14T11:49:48;100583.66;;;38.25;nan
21555;BME280;10938;44.794;-0.676;2022-08-14T11:52:14;100581.50;;;37.32;nan
21555;BME280;10938;44.794;-0.676;2022-08-14T11:54:41;100585.59;;;36.91;nan
21555;BME280;10938;44.794;-0.676;2022-08-14T11:57:16;100582.50;;;36.59;nan
21555;BME280;10938;44.794;-0.676;2022-08-14T11:59:41;100582.13;;;36.35;nan
21555;BME280;10938;44.794;-0.676;2022-08-14T12:02:16;100578.22;;;36.84;nan
21555;BME280;10938;44.794;-0.676;2022-08-14T12:04:49;100573.41;;;37.05;nan
21555;BME280;10938;44.794;-0.676;2022-08-14T12:07:15;100582.72;;;37.20;nan
21555;BME280;10938;44.794;-0.676;2022-08-14T12:09:40;100581.13;;;37.62;nan
21555;BME280;10938;44.794;-0.676;2022-08-14T12:12:18;100585.31;;;38.44;nan
21555;BME280;10938;44.794;-0.676;2022-08-14T12:17:29;100585.19;;;39.45;nan
21555;BME280;10938;44.794;-0.676;2022-08-14T12:20:03;100586.75;;;38.56;nan
21555;BME280;10938;44.794;-0.676;2022-08-14T12:22:40;100595.94;;;38.89;nan
21555;BME280;10938;44.794;-0.676;2022-08-14T12:25:09;100591.19;;;39.07;nan
21555;BME280;10938;44.794;-0.676;2022-08-14T12:27:36;100584.94;;;38.73;nan
21555;BME280;10938;44.794;-0.676;2022-08-14T12:30:02;100594.41;;;38.52;nan
21555;BME280;10938;44.794;-0.676;2022-08-14T12:32:42;100588.63;;;38.97;nan
21555;BME280;10938;44.794;-0.676;2022-08-14T12:35:08;100579.19;;;39.58;nan
21555;BME280;10938;44.794;-0.676;2022-08-14T12:37:34;100587.47;;;40.53;nan
21555;BME280;10938;44.794;-0.676;2022-08-14T12:40:13;100585.88;;;39.55;nan
21555;BME280;10938;44.794;-0.676;2022-08-14T12:42:40;100582.59;;;39.60;nan
21555;BME280;10938;44.794;-0.676;2022-08-14T12:45:06;100583.47;;;39.44;nan
21555;BME280;10938;44.794;-0.676;2022-08-14T12:47:33;100571.56;;;39.70;nan
21555;BME280;10938;44.794;-0.676;2022-08-14T12:49:59;100567.31;;;40.63;nan
21555;BME280;10938;44.794;-0.676;2022-08-14T12:52:37;100566.94;;;40.66;nan
21555;BME280;10938;44.794;-0.676;2022-08-14T12:55:09;100563.47;;;40.25;nan
21555;BME280;10938;44.794;-0.676;2022-08-14T12:57:40;100558.22;;;39.99;nan
21555;BME280;10938;44.794;-0.676;2022-08-14T13:00:12;100559.19;;;38.67;nan
21555;BME280;10938;44.794;-0.676;2022-08-14T13:02:45;100551.06;;;39.33;nan
21555;BME280;10938;44.794;-0.676;2022-08-14T13:05:12;100562.19;;;39.72;nan
21555;BME280;10938;44.794;-0.676;2022-08-14T13:07:39;100553.09;;;39.39;nan
21555;BME280;10938;44.794;-0.676;2022-08-14T13:10:08;100570.69;;;40.73;nan
21555;BME280;10938;44.794;-0.676;2022-08-14T13:12:36;100566.44;;;40.62;nan
21555;BME280;10938;44.794;-0.676;2022-08-14T13:15:04;100563.13;;;40.75;nan
21555;BME280;10938;44.794;-0.676;2022-08-14T13:17:30;100556.72;;;40.98;nan
21555;BME280;10938;44.794;-0.676;2022-08-14T13:19:56;100557.41;;;42.06;nan
21555;BME280;10938;44.794;-0.676;2022-08-14T13:22:25;100559.72;;;42.46;nan
21555;BME280;10938;44.794;-0.676;2022-08-14T13:24:54;100549.28;;;42.13;nan
21555;BME280;10938;44.794;-0.676;2022-08-14T13:27:21;100542.09;;;42.11;nan
21555;BME280;10938;44.794;-0.676;2022-08-14T13:29:49;100555.28;;;41.79;nan
21555;BME280;10938;44.794;-0.676;2022-08-14T13:32:17;100541.88;;;41.84;nan
21555;BME280;10938;44.794;-0.676;2022-08-14T13:34:46;100549.00;;;41.70;nan